MST,Max TemperatureF,Mean TemperatureF,Min TemperatureF,Max Dew PointF,MeanDew PointF,Min DewpointF,Max Humidity, Mean Humidity, Min Humidity, Max Sea Level PressureIn, Mean Sea Level PressureIn, Min Sea Level PressureIn, Max VisibilityMiles, Mean VisibilityMiles, Min VisibilityMiles, Max Wind SpeedMPH, Mean Wind SpeedMPH, Max Gust SpeedMPH,PrecipitationIn, CloudCover, Events, WindDirDegrees
2013-11-1,30,21,12,21,19,8,96,80,63,30.34,30.16,29.96,10,4,0,21,10,29,0.09,7,Fog-Snow,318
2013-11-2,50,29,8,7,3,-8,73,41,9,30.38,30.14,29.79,10,10,10,16,5,21,0.00,0,,15
2013-11-3,43,31,19,25,15,1,92,60,27,29.90,29.72,29.50,10,6,0,23,7,32,0.17,4,Fog-Snow,282
2013-11-4,35,21,6,20,13,3,92,64,35,29.90,29.82,29.71,10,8,1,23,8,28,T,3,Snow,176
2013-11-5,23,11,-1,20,10,-7,100,75,49,30.32,29.96,29.71,10,7,1,17,10,25,0.02,5,Snow,319
2013-11-6,28,14,-1,15,6,-9,73,62,50,30.46,30.38,30.24,10,10,9,21,9,30,T,4,,11
2013-11-7,46,30,13,16,13,8,84,57,29,30.47,30.28,29.97,10,10,10,17,8,23,0.00,1,,17
2013-11-8,44,36,27,15,12,7,58,41,24,30.00,29.93,29.85,10,10,10,24,9,38,0.00,0,,5
2013-11-9,48,35,22,14,12,10,60,42,23,30.23,30.09,29.97,10,10,10,17,8,24,0.00,0,,11
2013-11-10,48,33,18,15,13,10,67,45,23,30.34,30.21,30.13,10,10,10,17,7,25,0.00,0,,13
2013-11-11,47,33,18,14,12,10,73,48,23,30.44,30.30,30.17,10,10,10,16,6,20,0.00,0,,21
2013-11-12,49,34,18,15,9,-7,73,42,10,30.57,30.45,30.34,10,10,10,10,2,15,0.00,0,,49
2013-11-13,45,30,15,16,9,1,57,38,18,30.46,30.22,29.91,10,10,10,18,7,25,0.00,1,,359
2013-11-14,40,30,20,22,13,4,88,55,22,30.19,29.93,29.76,10,10,10,15,5,20,0.00,2,,357
2013-11-15,38,27,16,25,20,0,92,64,35,29.73,29.62,29.39,10,4,0,24,6,30,0.18,6,Fog-Snow,194
2013-11-16,30,23,16,23,18,12,96,73,49,29.63,29.53,29.37,10,3,0,39,12,54,0.25,7,Fog-Snow,305
2013-11-17,32,23,14,17,13,7,77,63,49,30.17,29.82,29.50,10,4,0,40,16,63,0.03,6,Fog-Snow,305
2013-11-18,45,27,8,8,3,-3,69,43,16,30.31,30.16,30.00,10,10,10,17,7,22,0.00,0,,6
2013-11-19,40,25,10,24,14,2,85,59,32,30.03,29.88,29.71,10,10,8,21,8,27,T,3,Snow,343
2013-11-20,37,31,25,25,22,16,92,68,44,29.98,29.84,29.66,10,7,2,16,6,21,0.03,7,Snow,340
2013-11-21,32,24,16,28,24,15,100,89,78,30.24,29.99,29.73,10,4,0,20,7,22,0.03,8,Fog-Snow,178
2013-11-22,20,16,11,18,14,9,92,88,84,30.42,30.35,30.21,10,4,0,20,6,25,0.16,8,Fog-Snow,181
2013-11-23,20,18,15,17,15,13,92,88,84,30.45,30.36,30.24,10,7,0,18,7,23,0.07,8,Fog-Snow,185
2013-11-24,30,19,7,24,18,7,92,85,78,30.22,30.04,29.87,10,8,2,23,10,29,0.04,6,Snow,6
2013-11-25,31,21,11,18,14,7,88,73,57,30.26,30.10,29.90,10,10,8,18,9,23,T,6,,355
2013-11-26,32,22,11,14,10,5,92,66,39,30.40,30.32,30.24,10,10,10,24,8,30,0.00,1,,17
2013-11-27,41,25,8,12,8,3,73,51,28,30.37,30.22,30.09,10,10,10,12,5,15,0.00,0,,10
2013-11-28,36,24,11,15,9,6,73,56,38,30.26,30.16,30.07,10,10,10,14,4,17,0.00,0,,102
2013-11-29,36,23,10,11,8,4,80,56,32,30.32,30.23,30.15,10,10,10,18,7,22,0.00,0,,6
2013-11-30,35,22,8,7,2,-2,73,48,23,30.38,30.27,30.17,10,10,10,16,9,20,0.00,0,,15